Time;durP1;ratioP1;P1;durP2;ratioP2;P2;SDS_P1;SDS_P2;PMS_P1;PMS_P2;Temp;Humidity;BMP_temperature;BMP_pressure;BME280_temperature;BME280_humidity;BME280_pressure;Samples;Min_cycle;Max_cycle;Signal;HPM_P1;HPM_P2
2023/07/30 00:01:05;;;;;;;;;0.00;0.00;;;;;20.48;58.95;101051.38;4999070;28;76098;-44
2023/07/30 00:03:31;;;;;;;;;0.75;0.75;;;;;20.46;59.12;101054.22;4999531;28;63444;-46
2023/07/30 00:05:56;;;;;;;;;2.25;1.25;;;;;20.43;59.66;101053.66;5000383;28;45324;-43
2023/07/30 00:08:22;;;;;;;;;0.75;0.75;;;;;20.39;59.94;101054.91;4995903;28;45428;-45
2023/07/30 00:10:47;;;;;;;;;1.00;1.00;;;;;20.34;59.35;101044.53;4996367;28;46214;-45
2023/07/30 00:13:13;;;;;;;;;0.50;0.50;;;;;20.28;59.73;101053.16;4998937;28;71603;-43
2023/07/30 00:15:38;;;;;;;;;1.00;1.00;;;;;20.26;60.35;101058.69;4999214;28;65853;-44
2023/07/30 00:18:03;;;;;;;;;1.00;1.00;;;;;20.24;60.05;101060.66;4999266;28;67717;-45
2023/07/30 00:20:29;;;;;;;;;2.75;0.00;;;;;20.23;59.90;101055.41;4999223;28;70112;-48
2023/07/30 00:22:54;;;;;;;;;1.00;1.00;;;;;20.26;60.11;101058.69;5000005;28;45397;-45
2023/07/30 00:25:19;;;;;;;;;1.00;1.00;;;;;20.21;60.26;101052.84;4996762;28;65651;-44
2023/07/30 00:27:45;;;;;;;;;0.00;0.00;;;;;20.16;60.00;101046.97;4999719;28;45604;-44
2023/07/30 00:30:10;;;;;;;;;2.00;1.75;;;;;20.13;60.02;101041.84;4998870;28;72779;-48
2023/07/30 00:32:36;;;;;;;;;1.00;0.50;;;;;20.09;60.18;101043.97;5000145;28;45400;-44
2023/07/30 00:35:01;;;;;;;;;0.25;0.25;;;;;20.03;60.49;101041.78;5003033;28;45423;-44
2023/07/30 00:37:26;;;;;;;;;2.50;1.00;;;;;19.98;60.29;101041.31;5002871;28;60167;-45
2023/07/30 00:39:52;;;;;;;;;1.00;1.00;;;;;19.94;60.76;101045.28;5003273;28;46127;-45
2023/07/30 00:42:17;;;;;;;;;5.00;0.25;;;;;19.94;61.41;101051.53;5001589;28;51599;-49
2023/07/30 00:44:42;;;;;;;;;1.00;1.00;;;;;19.98;61.39;101057.53;5002548;28;62482;-46
2023/07/30 00:47:08;;;;;;;;;1.50;1.00;;;;;20.01;61.71;101057.25;5002455;28;70344;-45
2023/07/30 00:49:33;;;;;;;;;2.25;1.25;;;;;20.04;61.56;101066.91;5000498;28;46536;-47
2023/07/30 00:51:59;;;;;;;;;1.25;1.00;;;;;20.08;61.17;101065.69;5002205;28;70907;-46
2023/07/30 00:54:25;;;;;;;;;1.00;1.00;;;;;20.10;61.50;101066.41;5002431;28;62502;-45
2023/07/30 00:56:52;;;;;;;;;1.00;1.00;;;;;20.09;61.22;101070.09;5003183;28;45294;-45
2023/07/30 00:59:18;;;;;;;;;0.00;0.00;;;;;20.10;61.43;101082.59;5001578;28;46346;-44
2023/07/30 01:01:46;;;;;;;;;0.25;0.25;;;;;20.11;61.24;101090.56;5003002;28;45425;-49
2023/07/30 01:04:11;;;;;;;;;2.00;0.75;;;;;20.09;61.08;101091.69;5000806;28;45364;-46
2023/07/30 01:06:36;;;;;;;;;2.00;2.00;;;;;20.05;60.58;101080.31;4982175;28;45550;-48
2023/07/30 01:09:02;;;;;;;;;1.75;1.00;;;;;19.97;60.44;101086.38;4997606;28;72441;-46
2023/07/30 01:11:27;;;;;;;;;0.25;0.25;;;;;19.87;59.85;101093.53;5002475;28;55972;-46
2023/07/30 01:13:54;;;;;;;;;2.75;1.00;;;;;19.79;59.84;101096.84;4999726;28;57267;-45
2023/07/30 01:16:19;;;;;;;;;1.50;0.50;;;;;19.74;60.53;101098.25;5000635;28;67873;-48
2023/07/30 01:18:46;;;;;;;;;1.00;1.00;;;;;19.72;60.31;101110.97;5000299;28;74131;-48
2023/07/30 01:21:11;;;;;;;;;1.50;1.00;;;;;19.73;60.67;101113.56;5002751;28;45317;-48
2023/07/30 01:23:37;;;;;;;;;3.50;1.00;;;;;19.73;60.46;101105.44;5000404;28;45330;-49
2023/07/30 01:26:11;;;;;;;;;1.00;1.00;;;;;19.71;60.49;101115.53;5002484;28;49638;-48
2023/07/30 01:28:43;;;;;;;;;0.00;0.00;;;;;19.71;60.45;101109.28;5000992;28;46275;-47
2023/07/30 01:31:14;;;;;;;;;1.25;1.00;;;;;19.72;60.41;101117.22;5002554;28;45350;-45
2023/07/30 01:33:40;;;;;;;;;1.00;1.00;;;;;19.73;60.33;101118.09;4998002;28;45442;-45
2023/07/30 01:36:08;;;;;;;;;0.75;0.75;;;;;19.78;60.56;101123.97;4989273;28;61754;-45
2023/07/30 01:38:34;;;;;;;;;0.00;0.00;;;;;19.83;60.42;101127.19;5001000;28;45658;-47
2023/07/30 01:41:00;;;;;;;;;2.00;0.00;;;;;19.85;59.97;101125.19;5001467;28;71702;-48
2023/07/30 01:43:25;;;;;;;;;1.00;1.00;;;;;19.85;59.66;101130.59;4997192;28;52462;-45
2023/07/30 01:45:50;;;;;;;;;0.00;0.00;;;;;19.83;60.18;101132.56;4993784;28;45518;-46
2023/07/30 01:48:16;;;;;;;;;0.00;0.00;;;;;19.82;60.02;101130.84;5001251;28;72833;-47
2023/07/30 01:50:41;;;;;;;;;1.00;1.00;;;;;19.75;59.75;101133.19;5001407;28;71128;-47
2023/07/30 01:53:06;;;;;;;;;0.00;0.00;;;;;19.67;60.13;101139.22;5002409;28;45348;-46
2023/07/30 01:55:31;;;;;;;;;0.00;0.00;;;;;19.64;60.06;101139.44;5001686;28;59533;-49
2023/07/30 01:57:57;;;;;;;;;1.50;1.50;;;;;19.64;60.55;101136.75;4999640;28;72352;-45
2023/07/30 02:00:22;;;;;;;;;1.00;1.00;;;;;19.63;60.39;101145.84;5001132;28;70348;-49
2023/07/30 02:02:47;;;;;;;;;2.50;0.50;;;;;19.65;60.16;101146.56;5001611;28;59406;-48
2023/07/30 02:05:13;;;;;;;;;2.00;0.75;;;;;19.65;60.71;101145.72;5002115;28;45403;-46
2023/07/30 02:07:38;;;;;;;;;1.50;0.50;;;;;19.65;60.62;101149.28;4999642;28;74202;-47
2023/07/30 02:10:04;;;;;;;;;1.00;1.00;;;;;19.64;60.68;101152.09;5001031;28;71137;-47
2023/07/30 02:12:29;;;;;;;;;1.00;1.00;;;;;19.58;60.95;101160.69;5001971;28;45313;-47
2023/07/30 02:14:54;;;;;;;;;1.00;1.00;;;;;19.53;60.54;101155.69;5000407;28;53958;-48
2023/07/30 02:17:20;;;;;;;;;2.00;1.00;;;;;19.53;60.89;101166.47;5001756;28;46077;-50
2023/07/30 02:19:45;;;;;;;;;2.00;1.00;;;;;19.49;60.83;101159.63;5000897;28;71684;-47
2023/07/30 02:22:10;;;;;;;;;0.75;0.75;;;;;19.46;61.26;101165.25;5001919;28;45417;-45
2023/07/30 02:24:36;;;;;;;;;1.00;1.00;;;;;19.42;61.05;101158.41;5001751;28;67959;-45
2023/07/30 02:27:01;;;;;;;;;2.00;1.00;;;;;19.39;61.42;101169.47;5000940;28;60901;-45
2023/07/30 02:29:27;;;;;;;;;0.50;0.00;;;;;19.38;61.10;101167.75;5000963;28;62721;-46
2023/07/30 02:31:53;;;;;;;;;1.25;1.25;;;;;19.36;61.37;101175.09;5001739;28;45319;-45
2023/07/30 02:34:18;;;;;;;;;1.33;1.33;;;;;19.32;62.03;101171.78;4999489;28;68057;-47
2023/07/30 02:36:43;;;;;;;;;1.00;1.00;;;;;19.32;61.66;101171.78;4999341;28;70345;-45
2023/07/30 02:39:08;;;;;;;;;1.00;0.50;;;;;19.27;61.71;101174.84;5000507;28;70861;-47
2023/07/30 02:41:34;;;;;;;;;2.50;1.00;;;;;19.26;61.63;101178.53;5000822;28;62687;-47
2023/07/30 02:43:59;;;;;;;;;1.00;1.00;;;;;19.24;61.84;101172.41;5000604;28;65212;-49
2023/07/30 02:46:24;;;;;;;;;0.67;0.67;;;;;19.23;62.23;101181.50;5001134;28;45423;-48
2023/07/30 02:48:50;;;;;;;;;5.00;1.33;;;;;19.18;62.36;101173.75;5000381;28;69853;-46
2023/07/30 02:51:15;;;;;;;;;2.67;1.33;;;;;19.15;62.38;101178.53;5001450;28;45456;-49
2023/07/30 02:53:42;;;;;;;;;1.00;1.00;;;;;19.17;62.39;101173.88;5000647;28;67191;-47
2023/07/30 02:56:08;;;;;;;;;0.75;0.75;;;;;19.21;62.49;101169.94;5000289;28;45431;-46
2023/07/30 02:58:33;;;;;;;;;0.50;0.50;;;;;19.20;62.53;101173.63;4999776;28;66881;-45
2023/07/30 03:01:08;;;;;;;;;2.00;0.00;;;;;19.18;62.37;101167.53;5001277;28;45511;-49
2023/07/30 03:03:33;;;;;;;;;2.33;1.00;;;;;19.15;62.37;101170.44;5001207;28;45432;-47
2023/07/30 03:05:59;;;;;;;;;0.00;0.00;;;;;19.11;62.37;101169.84;5000964;28;46248;-47
2023/07/30 03:08:24;;;;;;;;;2.33;1.00;;;;;19.10;62.58;101178.03;5000134;28;64890;-46
2023/07/30 03:10:49;;;;;;;;;2.00;1.00;;;;;19.06;62.28;101176.56;5000299;28;64071;-47
2023/07/30 03:13:15;;;;;;;;;0.00;0.00;;;;;19.04;62.64;101171.31;5000235;28;62522;-49
2023/07/30 03:15:40;;;;;;;;;1.00;1.00;;;;;19.07;62.67;101173.75;4999821;28;74865;-47
2023/07/30 03:18:05;;;;;;;;;2.00;1.00;;;;;19.06;62.79;101171.19;5000517;28;59754;-46
2023/07/30 03:20:31;;;;;;;;;1.00;1.00;;;;;19.05;62.56;101173.03;4999381;28;56879;-46
2023/07/30 03:22:56;;;;;;;;;1.00;1.00;;;;;19.04;62.96;101159.69;5000703;28;56456;-49
2023/07/30 03:25:21;;;;;;;;;1.00;1.00;;;;;18.99;63.04;101171.69;4998538;28;74980;-47
2023/07/30 03:27:56;;;;;;;;;1.67;1.00;;;;;18.94;63.10;101171.22;5114831;27;45726;-46
2023/07/30 03:30:21;;;;;;;;;1.00;1.00;;;;;18.92;63.49;101173.16;5097378;27;46853;-46
2023/07/30 03:32:46;;;;;;;;;1.75;1.75;;;;;18.90;63.32;101183.19;5096921;27;61036;-45
2023/07/30 03:35:12;;;;;;;;;1.00;1.00;;;;;18.87;63.76;101178.03;5096727;27;56612;-45
2023/07/30 03:37:37;;;;;;;;;1.67;1.67;;;;;18.83;63.54;101182.78;5096741;27;63288;-44
2023/07/30 03:40:03;;;;;;;;;1.00;1.00;;;;;18.78;63.98;101187.69;5096522;27;64234;-48
2023/07/30 03:42:28;;;;;;;;;3.67;1.33;;;;;18.75;64.18;101185.25;5097130;27;45374;-45
2023/07/30 03:44:53;;;;;;;;;0.00;0.00;;;;;18.73;64.07;101194.41;5096403;27;66969;-47
2023/07/30 03:47:19;;;;;;;;;1.67;1.67;;;;;18.71;64.21;101189.16;5106427;27;49291;-48
2023/07/30 03:49:44;;;;;;;;;0.67;0.67;;;;;18.72;64.46;101187.31;5096315;27;70063;-45
2023/07/30 03:52:09;;;;;;;;;1.00;0.00;;;;;18.62;64.41;101204.19;5112260;27;67534;-47
2023/07/30 03:54:34;;;;;;;;;1.33;1.00;;;;;18.56;64.81;101201.97;5096257;27;67642;-43
2023/07/30 03:57:00;;;;;;;;;0.00;0.00;;;;;18.56;64.81;101201.97;5096706;27;46036;-44
2023/07/30 03:59:25;;;;;;;;;1.00;1.00;;;;;18.55;65.02;101202.09;5096941;27;45277;-47
2023/07/30 04:01:51;;;;;;;;;1.00;1.00;;;;;18.50;65.18;101207.84;5097045;27;45885;-49
2023/07/30 04:04:16;;;;;;;;;4.00;1.00;;;;;18.46;65.20;101212.63;5096432;27;69157;-49
2023/07/30 04:06:41;;;;;;;;;2.67;1.33;;;;;18.45;65.01;101213.59;5097194;27;45822;-49
2023/07/30 04:09:08;;;;;;;;;3.00;1.00;;;;;18.45;65.54;101212.75;5096167;27;69413;-49
2023/07/30 04:11:33;;;;;;;;;3.67;1.00;;;;;18.44;65.32;101211.00;5096892;27;45342;-48
2023/07/30 04:13:58;;;;;;;;;1.00;1.00;;;;;18.42;65.56;101216.53;5095772;27;65627;-47
2023/07/30 04:16:24;;;;;;;;;2.67;1.00;;;;;18.42;65.56;101221.91;5095826;27;72299;-48
2023/07/30 04:18:49;;;;;;;;;2.25;0.50;;;;;18.43;65.69;101220.06;5095866;27;64299;-48
2023/07/30 04:21:15;;;;;;;;;1.25;1.25;;;;;18.43;65.42;101218.22;5096360;27;67583;-48
2023/07/30 04:23:40;;;;;;;;;1.00;1.00;;;;;18.45;65.44;101220.81;5097672;27;45609;-48
2023/07/30 04:26:06;;;;;;;;;1.00;1.00;;;;;18.44;65.75;101219.94;5113165;27;46064;-45
2023/07/30 04:28:31;;;;;;;;;2.00;1.75;;;;;18.47;65.66;101226.94;5095419;27;69111;-49
2023/07/30 04:30:56;;;;;;;;;1.50;1.00;;;;;18.48;65.79;101225.97;5095846;27;65206;-44
2023/07/30 04:33:22;;;;;;;;;4.00;1.00;;;;;18.48;65.53;101223.25;5095585;27;68721;-44
2023/07/30 04:35:47;;;;;;;;;1.33;1.00;;;;;18.38;66.57;101222.25;5096393;27;45393;-44
2023/07/30 04:38:12;;;;;;;;;1.00;1.00;;;;;18.31;66.02;101228.09;5087868;27;71143;-46
2023/07/30 04:40:39;;;;;;;;;1.00;1.00;;;;;18.31;65.78;101229.94;5083072;28;45498;-45
2023/07/30 04:43:04;;;;;;;;;2.33;2.00;;;;;18.32;65.97;101231.66;5082425;28;45309;-46
2023/07/30 04:45:29;;;;;;;;;3.33;2.00;;;;;18.32;65.66;101245.13;5081546;28;70855;-45
2023/07/30 04:47:56;;;;;;;;;2.33;1.00;;;;;18.29;66.38;101245.34;5082648;27;45345;-44
2023/07/30 04:50:21;;;;;;;;;1.33;0.33;;;;;18.28;66.79;101251.72;5082715;28;45377;-45
2023/07/30 04:52:46;;;;;;;;;9.00;1.00;;;;;18.24;66.83;101247.50;5081834;28;61781;-48
2023/07/30 04:55:12;;;;;;;;;3.00;1.00;;;;;18.17;66.45;101253.38;5081768;28;67010;-46
2023/07/30 04:57:37;;;;;;;;;4.33;2.00;;;;;18.13;67.29;101259.09;5082001;28;50745;-46
2023/07/30 05:00:03;;;;;;;;;2.00;1.33;;;;;18.05;66.93;101259.66;5081301;28;45500;-47
2023/07/30 05:02:29;;;;;;;;;1.33;1.00;;;;;18.07;66.80;101265.81;5081123;28;45441;-45
2023/07/30 05:04:54;;;;;;;;;1.00;1.00;;;;;18.12;67.01;101266.34;5082390;28;45409;-48
2023/07/30 05:07:19;;;;;;;;;2.00;1.00;;;;;18.22;67.00;101268.34;5081179;27;72794;-46
2023/07/30 05:09:45;;;;;;;;;1.00;1.00;;;;;18.26;66.10;101273.34;5082472;28;45429;-44
2023/07/30 05:12:10;;;;;;;;;0.00;0.00;;;;;18.26;66.50;101284.13;5081281;28;62433;-45
2023/07/30 05:14:35;;;;;;;;;1.67;1.33;;;;;18.28;66.37;101281.34;5081278;28;75754;-45
2023/07/30 05:17:01;;;;;;;;;2.67;1.33;;;;;18.31;66.31;101278.41;5081360;28;69782;-49
2023/07/30 05:19:26;;;;;;;;;1.00;1.00;;;;;18.33;66.52;101288.09;5081262;28;66770;-49
2023/07/30 05:21:51;;;;;;;;;4.33;1.67;;;;;18.28;66.66;101287.56;5081767;28;69862;-49
2023/07/30 05:24:17;;;;;;;;;1.33;1.33;;;;;18.25;66.17;101295.88;5097774;27;74083;-49
2023/07/30 05:26:42;;;;;;;;;2.00;2.00;;;;;18.26;66.05;101289.50;5097279;27;60018;-49
2023/07/30 05:29:07;;;;;;;;;1.00;1.00;;;;;18.30;66.09;101280.25;5097700;27;46032;-45
2023/07/30 05:31:33;;;;;;;;;1.00;1.00;;;;;18.38;66.30;101287.72;5081332;27;67559;-46
2023/07/30 05:33:58;;;;;;;;;3.00;2.00;;;;;18.55;66.38;101291.84;5080574;27;47276;-45
2023/07/30 05:36:23;;;;;;;;;2.00;1.00;;;;;19.06;65.73;101290.69;5081197;27;49785;-45
2023/07/30 05:38:49;;;;;;;;;3.00;1.67;;;;;19.19;64.26;101298.66;5082038;27;45476;-48
2023/07/30 05:41:14;;;;;;;;;2.67;1.00;;;;;19.17;64.03;101293.38;5080790;27;68859;-48
2023/07/30 05:43:39;;;;;;;;;1.00;1.00;;;;;19.12;64.33;101284.78;5079886;27;73482;-46
2023/07/30 05:46:05;;;;;;;;;2.00;2.00;;;;;19.08;63.82;101290.53;5083899;27;50647;-44
2023/07/30 05:48:30;;;;;;;;;5.67;1.33;;;;;19.09;64.03;101289.56;5080546;28;64673;-46
2023/07/30 05:50:55;;;;;;;;;3.67;1.00;;;;;19.11;63.94;101291.16;5077698;27;45445;-47
2023/07/30 05:53:21;;;;;;;;;3.00;1.67;;;;;19.14;63.74;101279.28;5079404;27;46140;-46
2023/07/30 05:55:46;;;;;;;;;2.67;1.00;;;;;19.17;63.86;101284.44;5078031;27;73438;-45
2023/07/30 05:58:11;;;;;;;;;1.00;1.00;;;;;19.13;63.48;101282.97;5079789;27;65404;-45
2023/07/30 06:00:37;;;;;;;;;1.67;1.67;;;;;19.10;63.17;101293.97;5079947;27;68805;-48
2023/07/30 06:03:03;;;;;;;;;2.00;0.33;;;;;19.11;63.00;101285.78;5078595;27;74021;-46
2023/07/30 06:05:28;;;;;;;;;3.00;1.67;;;;;19.16;63.27;101288.97;5080158;28;45413;-45
2023/07/30 06:07:53;;;;;;;;;2.67;1.00;;;;;19.25;62.99;101298.16;5076821;28;64554;-47
2023/07/30 06:10:19;;;;;;;;;2.67;1.33;;;;;19.27;62.61;101296.22;5080873;28;57529;-46
2023/07/30 06:12:44;;;;;;;;;3.33;1.33;;;;;19.29;62.58;101306.88;5079503;28;56878;-46
2023/07/30 06:15:09;;;;;;;;;2.00;1.67;;;;;19.38;62.63;101300.75;5080216;27;73801;-47
2023/07/30 06:17:35;;;;;;;;;2.67;1.33;;;;;19.49;62.64;101299.91;5080919;28;51103;-44
2023/07/30 06:20:00;;;;;;;;;1.00;1.00;;;;;19.56;62.24;101302.97;5080127;28;66633;-46
2023/07/30 06:22:26;;;;;;;;;3.00;2.00;;;;;19.60;62.04;101296.34;5079664;28;46077;-47
2023/07/30 06:24:51;;;;;;;;;1.00;1.00;;;;;19.64;61.49;101297.78;5074494;27;47955;-46
2023/07/30 06:27:16;;;;;;;;;3.00;1.33;;;;;19.74;61.93;101308.72;5080407;27;47256;-45
2023/07/30 06:29:42;;;;;;;;;1.00;1.00;;;;;19.82;61.29;101311.69;5080258;27;64351;-46
2023/07/30 06:32:07;;;;;;;;;1.67;1.00;;;;;19.87;60.96;101320.25;5080671;27;46249;-47
2023/07/30 06:34:32;;;;;;;;;1.00;1.00;;;;;19.97;61.16;101321.22;5079741;28;45417;-47
2023/07/30 06:36:58;;;;;;;;;3.00;1.00;;;;;20.08;59.74;101325.75;5080175;27;64130;-46
2023/07/30 06:39:23;;;;;;;;;2.00;1.00;;;;;20.34;59.89;101336.22;5081086;28;45488;-48
2023/07/30 06:41:48;;;;;;;;;3.00;3.00;;;;;22.76;57.40;101332.25;5080360;27;46059;-45
2023/07/30 06:44:14;;;;;;;;;3.00;1.00;;;;;25.36;55.47;101325.78;5079857;27;70879;-47
2023/07/30 06:46:39;;;;;;;;;2.33;2.00;;;;;27.67;48.94;101332.38;5080356;28;48644;-47
2023/07/30 06:49:04;;;;;;;;;2.67;2.00;;;;;28.32;46.90;101322.16;5080676;28;45182;-48
2023/07/30 06:51:30;;;;;;;;;2.00;2.00;;;;;28.44;43.51;101325.31;5081172;27;69874;-49
2023/07/30 06:53:56;;;;;;;;;3.33;2.00;;;;;28.67;41.92;101333.56;5079242;28;45384;-47
2023/07/30 06:56:21;;;;;;;;;2.50;2.00;;;;;28.77;42.27;101344.22;5082143;27;46255;-49
2023/07/30 06:58:47;;;;;;;;;3.75;2.00;;;;;29.20;39.28;101330.84;5080414;27;45350;-46
2023/07/30 07:01:12;;;;;;;;;2.75;1.75;;;;;30.52;38.75;101333.81;5089347;27;45737;-47
2023/07/30 07:03:37;;;;;;;;;1.00;1.00;;;;;32.08;35.24;101337.41;5078667;27;45746;-48
2023/07/30 07:06:02;;;;;;;;;2.75;1.00;;;;;32.33;36.10;101346.81;5079563;28;65083;-47
2023/07/30 07:08:28;;;;;;;;;4.50;2.00;;;;;31.59;34.96;101342.88;5080046;28;56974;-45
2023/07/30 07:10:53;;;;;;;;;1.50;1.50;;;;;31.45;34.95;101343.84;5080377;27;45424;-45
2023/07/30 07:13:19;;;;;;;;;1.00;1.00;;;;;33.24;35.89;101329.91;5080147;28;45354;-47
2023/07/30 07:15:44;;;;;;;;;3.00;2.00;;;;;35.65;27.54;101333.84;5080032;27;53312;-46
2023/07/30 07:18:10;;;;;;;;;0.75;0.75;;;;;37.53;30.63;101336.47;5080337;28;45433;-44
2023/07/30 07:20:36;;;;;;;;;3.25;2.00;;;;;38.52;28.69;101337.31;5080168;27;46230;-45
2023/07/30 07:23:02;;;;;;;;;2.00;1.00;;;;;39.18;23.30;101345.91;5079022;28;45473;-47
2023/07/30 07:25:27;;;;;;;;;1.00;1.00;;;;;38.42;24.92;101346.28;5098837;27;60374;-45
2023/07/30 07:27:52;;;;;;;;;2.75;2.00;;;;;39.11;26.10;101345.22;5078936;27;65989;-48
2023/07/30 07:30:18;;;;;;;;;2.25;1.50;;;;;39.76;25.25;101342.78;5079162;27;73581;-49
2023/07/30 07:32:43;;;;;;;;;1.75;0.50;;;;;38.97;24.79;101347.53;5080109;27;45335;-47
2023/07/30 07:35:09;;;;;;;;;4.00;1.50;;;;;38.77;25.58;101348.03;5080048;27;46062;-45
2023/07/30 07:37:34;;;;;;;;;0.75;0.00;;;;;38.21;25.16;101354.25;5080303;28;45223;-46
2023/07/30 07:39:59;;;;;;;;;1.75;1.75;;;;;39.30;22.96;101351.38;5079762;27;51559;-46
2023/07/30 07:42:25;;;;;;;;;0.00;0.00;;;;;40.67;23.83;101352.38;5079873;27;45343;-47
2023/07/30 07:44:50;;;;;;;;;1.25;0.50;;;;;41.94;22.50;101358.19;5079173;27;63521;-45
2023/07/30 07:47:15;;;;;;;;;2.75;1.00;;;;;43.02;21.34;101360.22;5079235;27;65588;-46
2023/07/30 07:49:41;;;;;;;;;1.00;1.00;;;;;43.21;20.69;101368.03;5078703;28;74557;-46
2023/07/30 07:52:06;;;;;;;;;0.75;0.75;;;;;40.83;21.68;101372.88;5078560;28;45970;-47
2023/07/30 07:54:32;;;;;;;;;2.25;1.00;;;;;39.20;23.52;101370.69;5080235;28;45418;-48
2023/07/30 07:56:57;;;;;;;;;1.00;0.75;;;;;37.76;24.89;101373.56;5078843;27;66935;-47
2023/07/30 07:59:23;;;;;;;;;1.25;1.00;;;;;38.40;24.18;101379.06;5080044;27;58519;-47
2023/07/30 08:01:48;;;;;;;;;0.00;0.00;;;;;39.83;22.47;101381.56;5079895;28;45476;-46
2023/07/30 08:04:14;;;;;;;;;2.75;1.00;;;;;39.14;22.57;101388.34;5079858;27;45270;-47
2023/07/30 08:06:39;;;;;;;;;0.00;0.00;;;;;37.89;23.57;101389.97;5078733;27;67029;-49
2023/07/30 08:09:05;;;;;;;;;1.25;0.50;;;;;37.39;23.59;101381.13;5079543;28;45819;-49
2023/07/30 08:11:30;;;;;;;;;3.75;1.00;;;;;38.92;24.22;101386.38;5079664;28;45676;-46
2023/07/30 08:13:56;;;;;;;;;1.00;1.00;;;;;38.89;23.06;101389.63;5080862;28;66255;-48
2023/07/30 08:16:22;;;;;;;;;1.00;0.00;;;;;40.10;22.33;101387.19;5083063;27;45787;-47
2023/07/30 08:18:47;;;;;;;;;0.00;0.00;;;;;40.75;20.63;101378.94;5082989;28;45293;-49
2023/07/30 08:21:13;;;;;;;;;3.00;1.00;;;;;41.31;21.53;101389.66;5082009;28;71982;-48
2023/07/30 08:23:38;;;;;;;;;0.50;0.50;;;;;40.92;20.41;101383.53;5083227;28;45445;-49
2023/07/30 08:26:03;;;;;;;;;1.00;0.00;;;;;40.26;20.57;101379.00;5082008;28;63941;-49
2023/07/30 08:28:29;;;;;;;;;2.25;0.00;;;;;38.14;21.53;101381.31;5081930;28;67109;-49
2023/07/30 08:31:02;;;;;;;;;1.00;1.00;;;;;36.57;23.78;101388.22;5082098;28;65793;-47
2023/07/30 08:33:27;;;;;;;;;2.00;0.00;;;;;36.67;23.89;101392.34;5082844;28;45352;-48
2023/07/30 08:35:57;;;;;;;;;4.75;1.00;;;;;36.75;23.80;101394.75;5098608;27;45359;-48
2023/07/30 08:38:22;;;;;;;;;0.00;0.00;;;;;35.67;24.60;101384.28;5081667;28;45955;-49
2023/07/30 08:40:48;;;;;;;;;1.00;0.00;;;;;34.42;25.70;101392.31;5063043;28;45800;-45
2023/07/30 08:43:14;;;;;;;;;1.00;1.00;;;;;33.35;26.45;101389.91;5082575;28;45369;-46
2023/07/30 08:45:39;;;;;;;;;0.00;0.00;;;;;31.98;27.36;101401.03;5081472;28;45403;-47
2023/07/30 08:48:04;;;;;;;;;1.50;1.00;;;;;30.80;28.79;101387.91;5080100;28;72907;-50
2023/07/30 08:50:30;;;;;;;;;3.25;1.75;;;;;30.54;29.67;101392.09;5082166;27;53366;-46
2023/07/30 08:52:55;;;;;;;;;1.25;1.25;;;;;30.54;29.58;101392.09;5098522;27;45685;-46
2023/07/30 08:55:21;;;;;;;;;1.75;0.75;;;;;29.94;30.11;101392.19;5082684;28;45327;-47
2023/07/30 08:57:47;;;;;;;;;1.00;1.00;;;;;29.64;31.21;101385.88;5080761;28;48117;-48
2023/07/30 09:00:15;;;;;;;;;0.50;0.50;;;;;29.05;31.40;101381.97;5081121;28;45373;-46
2023/07/30 09:02:48;;;;;;;;;1.75;1.75;;;;;28.82;32.24;101379.25;5082001;28;45393;-45
2023/07/30 09:05:14;;;;;;;;;5.25;1.50;;;;;28.55;32.45;101379.59;5082385;28;45387;-45
2023/07/30 09:07:39;;;;;;;;;2.00;1.00;;;;;28.28;32.63;101391.03;5081440;28;65133;-45
2023/07/30 09:10:05;;;;;;;;;2.50;2.50;;;;;27.74;33.03;101387.16;5082230;27;45364;-45
2023/07/30 09:12:35;;;;;;;;;2.75;1.75;;;;;27.20;33.63;101390.50;5098004;27;45342;-45
2023/07/30 09:15:05;;;;;;;;;2.00;1.75;;;;;26.80;35.51;101390.31;5082316;28;45408;-46
2023/07/30 09:17:30;;;;;;;;;2.00;1.50;;;;;26.82;34.83;101371.09;5082141;28;46570;-47
2023/07/30 09:19:56;;;;;;;;;1.25;1.25;;;;;26.86;35.23;101375.19;5080588;27;49977;-46
2023/07/30 09:22:28;;;;;;;;;1.75;1.75;;;;;29.15;32.55;101379.84;5077040;27;46123;-58
2023/07/30 09:24:54;;;;;;;;;2.25;1.00;;;;;29.89;31.69;101377.38;5083756;27;45501;-59
2023/07/30 09:27:26;;;;;;;;;2.75;2.75;;;;;29.32;32.02;101375.06;5080276;27;46381;-58
2023/07/30 09:29:56;;;;;;;;;1.75;1.75;;;;;28.74;32.24;101371.97;5079695;27;45503;-59
2023/07/30 09:32:32;;;;;;;;;3.00;1.50;;;;;28.26;32.97;101379.47;5081318;27;45554;-58
2023/07/30 09:35:10;;;;;;;;;2.00;2.00;;;;;27.61;33.60;101379.50;5083445;27;45487;-58
2023/07/30 09:37:38;;;;;;;;;2.00;0.75;;;;;27.05;34.57;101379.41;5078426;27;45418;-58
2023/07/30 09:40:08;;;;;;;;;2.50;2.00;;;;;26.31;34.26;101385.63;5079397;27;45237;-58
2023/07/30 09:42:39;;;;;;;;;2.00;1.00;;;;;25.69;36.98;101391.31;5084053;27;45536;-47
2023/07/30 09:45:06;;;;;;;;;3.25;2.00;;;;;25.24;37.30;101398.66;5077707;27;45362;-47
2023/07/30 09:47:33;;;;;;;;;2.75;2.75;;;;;24.90;37.35;101402.97;5114184;27;47075;-48
2023/07/30 09:49:59;;;;;;;;;2.50;2.50;;;;;24.68;38.47;101403.44;5081406;27;45399;-49
2023/07/30 09:52:24;;;;;;;;;1.50;1.50;;;;;24.43;38.46;101404.03;5095850;27;45472;-48
2023/07/30 09:54:52;;;;;;;;;4.00;1.00;;;;;24.28;39.80;101400.94;5070444;28;45478;-51
2023/07/30 09:57:17;;;;;;;;;2.75;2.00;;;;;24.22;39.04;101404.31;5083097;27;48381;-46
2023/07/30 09:59:42;;;;;;;;;2.00;2.00;;;;;24.17;39.70;101403.91;5064071;28;71420;-52
2023/07/30 10:02:10;;;;;;;;;5.00;2.50;;;;;24.10;39.67;101400.91;5070947;27;51484;-50
2023/07/30 10:04:41;;;;;;;;;2.75;2.00;;;;;24.10;39.40;101402.78;5080240;27;45387;-48
2023/07/30 10:07:10;;;;;;;;;3.75;2.00;;;;;24.78;39.29;101412.38;5083996;27;47114;-48
2023/07/30 10:09:43;;;;;;;;;1.50;1.25;;;;;26.30;36.42;101408.47;5076870;28;45349;-49
2023/07/30 10:12:10;;;;;;;;;3.50;2.50;;;;;27.92;34.47;101410.69;5076508;28;45395;-49
2023/07/30 10:14:35;;;;;;;;;2.00;2.00;;;;;29.84;33.11;101397.97;5090757;27;45515;-46
2023/07/30 10:17:01;;;;;;;;;1.75;1.25;;;;;30.42;31.23;101407.34;5085597;27;45435;-48
2023/07/30 10:19:28;;;;;;;;;1.75;0.75;;;;;30.70;28.86;101404.69;5067018;27;45625;-46
2023/07/30 10:22:29;;;;;;;;;2.25;1.00;;;;;31.83;27.92;101409.44;5100105;27;45432;-46
2023/07/30 10:25:03;;;;;;;;;1.75;1.75;;;;;31.44;27.53;101410.84;5054805;28;45546;-46
2023/07/30 10:27:36;;;;;;;;;3.50;2.25;;;;;30.52;29.23;101424.38;5064762;28;46124;-49
2023/07/30 10:30:15;;;;;;;;;2.00;2.00;;;;;30.68;29.13;101423.28;5079216;28;45585;-46
2023/07/30 10:32:42;;;;;;;;;0.25;0.25;;;;;31.45;26.91;101418.88;5074979;28;45361;-46
2023/07/30 10:35:08;;;;;;;;;2.25;0.50;;;;;30.78;27.26;101429.28;5070714;27;45391;-48
2023/07/30 10:37:33;;;;;;;;;4.50;2.00;;;;;29.55;28.68;101420.72;5074271;27;46191;-47
2023/07/30 10:39:58;;;;;;;;;2.00;1.00;;;;;28.96;30.13;101418.69;5072127;27;69165;-47
2023/07/30 10:42:33;;;;;;;;;2.00;2.00;;;;;28.98;30.47;101413.84;5081447;27;45264;-49
2023/07/30 10:44:58;;;;;;;;;3.00;3.00;;;;;28.71;31.16;101429.81;5085738;27;45473;-49
2023/07/30 10:47:26;;;;;;;;;3.50;2.00;;;;;28.31;31.25;101423.53;5080199;27;73534;-54
2023/07/30 10:49:53;;;;;;;;;3.00;1.00;;;;;28.03;31.82;101418.50;5073813;27;45584;-48
2023/07/30 10:52:19;;;;;;;;;3.00;1.00;;;;;27.74;31.78;101411.75;5074262;27;45401;-46
2023/07/30 10:54:44;;;;;;;;;2.00;2.00;;;;;27.47;32.74;101405.69;5079330;27;45399;-50
2023/07/30 10:57:09;;;;;;;;;1.75;1.50;;;;;27.36;33.08;101409.56;5074661;28;72399;-47
2023/07/30 10:59:36;;;;;;;;;1.50;1.50;;;;;27.52;32.93;101403.28;5075703;27;65552;-48
2023/07/30 11:02:02;;;;;;;;;2.00;2.00;;;;;27.47;33.15;101407.56;5063762;28;45420;-46
2023/07/30 11:04:27;;;;;;;;;3.75;1.75;;;;;27.37;33.12;101418.66;5071106;27;45401;-49
2023/07/30 11:06:52;;;;;;;;;2.25;2.00;;;;;27.63;33.09;101414.88;5071137;28;66089;-51
2023/07/30 11:09:22;;;;;;;;;4.75;2.00;;;;;27.66;32.93;101414.53;5062484;28;45414;-49
2023/07/30 11:11:48;;;;;;;;;3.00;3.00;;;;;27.79;32.25;101417.53;5088231;27;46335;-50
2023/07/30 11:14:21;;;;;;;;;2.50;2.50;;;;;28.20;31.23;101425.63;5079747;27;45217;-50
2023/07/30 11:16:49;;;;;;;;;1.50;1.50;;;;;28.93;30.89;101419.03;5092664;27;45407;-49
2023/07/30 11:19:15;;;;;;;;;2.50;2.00;;;;;29.28;30.66;101419.44;5071161;27;45536;-50